createdAt,value
2023-06-30T00:00:17.564Z,25.28
2023-06-30T00:01:26.806Z,25.29
2023-06-30T00:02:34.549Z,25.34
2023-06-30T00:03:39.582Z,24.47
2023-06-30T00:04:49.800Z,25.29
2023-06-30T00:05:58.174Z,25.32
2023-06-30T00:07:07.467Z,25.31
2023-06-30T00:08:13.312Z,25.32
2023-06-30T00:09:21.007Z,25.37
2023-06-30T00:10:25.903Z,25.18
2023-06-30T00:11:33.560Z,24.97
2023-06-30T00:12:38.520Z,24.81
2023-06-30T00:13:46.127Z,25.06
2023-06-30T00:14:51.513Z,25.07
2023-06-30T00:16:00.975Z,25.07
2023-06-30T00:17:06.345Z,25.10
2023-06-30T00:18:14.022Z,25.04
2023-06-30T00:19:18.990Z,24.96
2023-06-30T00:20:26.894Z,24.99
2023-06-30T00:21:34.721Z,24.95
2023-06-30T00:22:42.494Z,25.07
2023-06-30T00:23:47.550Z,25.02
2023-06-30T00:25:00.638Z,24.94
2023-06-30T00:26:05.477Z,24.84
2023-06-30T00:27:13.179Z,24.74
2023-06-30T00:28:18.160Z,24.73
2023-06-30T00:29:25.875Z,24.84
2023-06-30T00:30:30.967Z,24.95
2023-06-30T00:31:38.772Z,24.83
2023-06-30T00:32:43.985Z,24.79
2023-06-30T00:33:51.602Z,24.78
2023-06-30T00:34:56.469Z,24.78
2023-06-30T00:36:04.420Z,24.81
2023-06-30T00:37:12.174Z,24.76
2023-06-30T00:38:19.871Z,24.70
2023-06-30T00:39:26.786Z,24.63
2023-06-30T00:40:34.686Z,24.39
2023-06-30T00:41:39.556Z,24.74
2023-06-30T00:42:47.401Z,24.68
2023-06-30T00:43:52.350Z,24.78
2023-06-30T00:45:01.812Z,24.87
2023-06-30T00:46:06.852Z,24.91
2023-06-30T00:47:15.109Z,24.94
2023-06-30T00:48:20.193Z,24.83
2023-06-30T00:49:27.799Z,24.96
2023-06-30T00:50:33.438Z,24.96
2023-06-30T00:51:41.241Z,24.95
2023-06-30T00:52:51.323Z,24.81
2023-06-30T00:53:59.392Z,24.84
2023-06-30T00:55:05.246Z,24.86
2023-06-30T00:56:12.964Z,24.92
2023-06-30T00:57:17.978Z,24.98
2023-06-30T00:58:25.637Z,24.97
2023-06-30T00:59:30.532Z,24.83
2023-06-30T01:00:38.252Z,25.02
2023-06-30T01:01:51.420Z,24.93
2023-06-30T01:03:16.060Z,24.98
2023-06-30T01:04:31.530Z,25.15
2023-06-30T01:05:49.948Z,25.30
2023-06-30T01:07:05.332Z,25.41
2023-06-30T01:08:28.740Z,25.37
2023-06-30T01:09:41.172Z,25.09
2023-06-30T01:10:51.635Z,25.28
2023-06-30T01:11:58.178Z,25.28
2023-06-30T01:13:10.032Z,25.29
2023-06-30T01:14:22.656Z,25.38
2023-06-30T01:15:28.362Z,25.49
2023-06-30T01:16:38.975Z,25.57
2023-06-30T01:17:50.001Z,24.99
2023-06-30T01:19:01.318Z,25.61
2023-06-30T01:20:08.679Z,25.58
2023-06-30T01:21:18.434Z,25.57
2023-06-30T01:22:28.368Z,25.56
2023-06-30T01:23:42.896Z,25.64
2023-06-30T01:24:51.816Z,25.56
2023-06-30T01:26:00.758Z,25.79
2023-06-30T01:27:06.881Z,25.77
2023-06-30T01:28:15.572Z,25.41
2023-06-30T01:29:22.769Z,25.82
2023-06-30T01:30:33.551Z,25.87
2023-06-30T01:31:38.608Z,25.80
2023-06-30T01:32:47.470Z,25.84
2023-06-30T01:33:52.838Z,25.92
2023-06-30T01:35:00.532Z,25.87
2023-06-30T01:36:06.205Z,25.66
2023-06-30T01:37:13.951Z,25.64
2023-06-30T01:38:18.967Z,25.56
2023-06-30T01:39:29.244Z,25.47
2023-06-30T01:40:35.038Z,25.48
2023-06-30T01:41:42.963Z,25.42
2023-06-30T01:42:49.372Z,25.42
2023-06-30T01:43:57.730Z,24.36
2023-06-30T01:45:04.063Z,25.40
2023-06-30T01:46:12.802Z,25.44
2023-06-30T01:47:18.424Z,25.47
2023-06-30T01:48:26.735Z,25.33
2023-06-30T01:49:32.422Z,25.55
2023-06-30T01:50:42.832Z,25.54
2023-06-30T01:51:47.916Z,25.61
2023-06-30T01:52:55.581Z,25.59
2023-06-30T01:54:00.631Z,25.46
2023-06-30T01:55:11.823Z,25.07
2023-06-30T01:56:19.494Z,25.38
2023-06-30T01:57:24.535Z,25.49
2023-06-30T01:58:33.413Z,25.51
2023-06-30T01:59:38.582Z,25.56
2023-06-30T02:00:46.220Z,25.60
2023-06-30T02:01:51.158Z,25.56
2023-06-30T02:02:58.856Z,25.58
2023-06-30T02:04:03.833Z,25.69
2023-06-30T02:05:12.336Z,25.76
2023-06-30T02:06:17.533Z,25.75
2023-06-30T02:07:25.373Z,25.69
2023-06-30T02:08:30.304Z,25.55
2023-06-30T02:09:47.338Z,25.59
2023-06-30T02:10:58.705Z,25.48
2023-06-30T02:12:05.329Z,25.42
2023-06-30T02:13:12.920Z,25.53
2023-06-30T02:14:17.917Z,25.51
2023-06-30T02:15:25.745Z,25.52
2023-06-30T02:16:33.305Z,25.50
2023-06-30T02:17:42.094Z,25.37
2023-06-30T02:18:47.017Z,25.39
2023-06-30T02:19:54.666Z,25.36
2023-06-30T02:21:02.364Z,25.25
2023-06-30T02:22:08.035Z,25.17
2023-06-30T02:23:15.690Z,25.24
2023-06-30T02:24:20.706Z,25.22
2023-06-30T02:25:29.582Z,25.21
2023-06-30T02:26:37.245Z,25.15
2023-06-30T02:27:46.998Z,24.99
2023-06-30T02:28:57.551Z,25.12
2023-06-30T02:30:07.281Z,25.18
2023-06-30T02:31:13.845Z,25.14
2023-06-30T02:32:21.721Z,25.01
2023-06-30T02:33:26.882Z,25.06
2023-06-30T02:34:34.383Z,25.05
2023-06-30T02:35:39.711Z,25.00
2023-06-30T02:36:47.531Z,25.02
2023-06-30T02:37:52.467Z,24.97
2023-06-30T02:39:04.142Z,25.14
2023-06-30T02:40:10.985Z,25.04
2023-06-30T02:41:18.554Z,25.06
2023-06-30T02:42:26.311Z,25.10
2023-06-30T02:43:34.027Z,25.08
2023-06-30T02:44:38.942Z,25.15
2023-06-30T02:45:47.525Z,25.22
2023-06-30T02:46:53.104Z,25.25
2023-06-30T02:48:00.708Z,25.31
2023-06-30T02:49:05.804Z,25.28
2023-06-30T02:50:14.089Z,25.33
2023-06-30T02:51:19.851Z,23.01
2023-06-30T02:52:30.130Z,25.06
2023-06-30T02:53:36.490Z,25.10
2023-06-30T02:54:44.148Z,25.14
2023-06-30T02:55:49.466Z,25.15
2023-06-30T02:56:57.891Z,25.13
2023-06-30T02:58:05.823Z,25.06
2023-06-30T02:59:15.765Z,24.99
2023-06-30T03:00:21.969Z,25.10
2023-06-30T03:01:30.393Z,24.99
2023-06-30T03:02:35.632Z,25.15
2023-06-30T03:03:44.724Z,25.16
2023-06-30T03:04:52.828Z,25.21
2023-06-30T03:06:00.638Z,25.23
2023-06-30T03:07:09.623Z,25.26
2023-06-30T03:08:20.462Z,25.31
2023-06-30T03:09:27.189Z,25.24
2023-06-30T03:10:35.096Z,25.29
2023-06-30T03:11:40.127Z,25.26
2023-06-30T03:12:48.109Z,25.28
2023-06-30T03:13:55.902Z,25.26
2023-06-30T03:15:06.098Z,25.37
2023-06-30T03:16:14.788Z,25.43
2023-06-30T03:17:23.061Z,25.40
2023-06-30T03:18:28.138Z,25.41
2023-06-30T03:19:35.766Z,25.47
2023-06-30T03:20:41.753Z,25.40
2023-06-30T03:21:49.542Z,25.41
2023-06-30T03:22:55.880Z,24.88
2023-06-30T03:24:04.444Z,25.42
2023-06-30T03:25:11.002Z,24.81
2023-06-30T03:26:18.710Z,25.35
2023-06-30T03:27:23.654Z,25.24
2023-06-30T03:28:31.672Z,25.14
2023-06-30T03:29:39.315Z,25.05
2023-06-30T03:30:47.212Z,25.10
2023-06-30T03:31:52.519Z,25.01
2023-06-30T03:33:00.894Z,23.95
2023-06-30T03:34:06.088Z,25.13
2023-06-30T03:35:13.992Z,25.07
2023-06-30T03:36:25.300Z,25.06
2023-06-30T03:37:32.111Z,25.05
2023-06-30T03:38:40.070Z,25.08
2023-06-30T03:39:45.188Z,25.07
2023-06-30T03:40:52.930Z,25.09
2023-06-30T03:41:57.941Z,25.04
2023-06-30T03:43:05.471Z,25.05
2023-06-30T03:44:12.910Z,25.19
2023-06-30T03:45:23.463Z,25.28
2023-06-30T03:46:28.727Z,25.01
2023-06-30T03:47:36.600Z,25.28
2023-06-30T03:48:41.736Z,25.27
2023-06-30T03:49:50.610Z,25.22
2023-06-30T03:50:56.249Z,25.22
2023-06-30T03:52:04.597Z,24.17
2023-06-30T03:53:09.577Z,24.92
2023-06-30T03:54:17.347Z,24.67
2023-06-30T03:55:22.335Z,24.98
2023-06-30T03:56:30.008Z,24.96
2023-06-30T03:57:35.031Z,23.93
2023-06-30T03:58:42.647Z,24.99
2023-06-30T03:59:48.935Z,25.00
2023-06-30T04:00:59.939Z,24.95
2023-06-30T04:02:04.983Z,24.96
2023-06-30T04:03:12.765Z,24.95
2023-06-30T04:04:18.040Z,24.97
2023-06-30T04:05:26.372Z,24.90
2023-06-30T04:06:32.817Z,24.85
2023-06-30T04:07:41.041Z,24.47
2023-06-30T04:08:46.430Z,24.58
2023-06-30T04:09:53.993Z,24.92
2023-06-30T04:10:58.967Z,24.85
2023-06-30T04:12:06.690Z,24.88
2023-06-30T04:13:11.604Z,24.81
2023-06-30T04:14:19.241Z,24.80
2023-06-30T04:15:24.350Z,24.88
2023-06-30T04:16:34.766Z,24.79
2023-06-30T04:17:40.232Z,24.66
2023-06-30T04:18:47.874Z,24.62
2023-06-30T04:19:52.845Z,24.55
2023-06-30T04:21:00.953Z,24.52
2023-06-30T04:22:06.679Z,24.51
2023-06-30T04:23:14.251Z,24.54
2023-06-30T04:24:19.943Z,24.52
2023-06-30T04:25:27.644Z,24.64
2023-06-30T04:26:33.308Z,24.66
2023-06-30T04:27:41.629Z,24.69
2023-06-30T04:28:46.566Z,24.71
2023-06-30T04:29:54.704Z,24.70
2023-06-30T04:31:00.393Z,24.60
2023-06-30T04:32:10.996Z,24.58
2023-06-30T04:33:16.162Z,24.55
2023-06-30T04:34:23.770Z,24.46
2023-06-30T04:35:28.831Z,24.37
2023-06-30T04:36:36.638Z,24.31
2023-06-30T04:37:42.376Z,24.36
2023-06-30T04:38:50.193Z,24.35
2023-06-30T04:39:55.194Z,24.34
2023-06-30T04:41:02.806Z,24.37
2023-06-30T04:42:08.403Z,24.30
2023-06-30T04:43:16.153Z,24.34
2023-06-30T04:44:21.017Z,24.36
2023-06-30T04:45:28.630Z,24.24
2023-06-30T04:46:33.978Z,24.39
2023-06-30T04:47:44.572Z,24.37
2023-06-30T04:48:50.049Z,24.34
2023-06-30T04:50:01.180Z,24.24
2023-06-30T04:51:06.822Z,24.27
2023-06-30T04:52:15.291Z,23.92
2023-06-30T04:53:20.368Z,24.22
2023-06-30T04:54:28.099Z,24.21
2023-06-30T04:55:32.964Z,22.98
2023-06-30T04:56:40.490Z,24.15
2023-06-30T04:57:45.447Z,24.28
2023-06-30T04:58:55.165Z,24.34
2023-06-30T05:00:00.109Z,24.32
2023-06-30T05:01:08.618Z,24.28
2023-06-30T05:02:13.670Z,24.25
2023-06-30T05:03:24.178Z,24.20
2023-06-30T05:04:29.125Z,24.07
2023-06-30T05:05:36.939Z,24.13
2023-06-30T05:06:44.630Z,24.17
2023-06-30T05:07:49.465Z,24.18
2023-06-30T05:08:57.159Z,24.15
2023-06-30T05:10:02.110Z,24.10
2023-06-30T05:11:09.737Z,24.19
2023-06-30T05:12:16.738Z,24.17
2023-06-30T05:13:24.402Z,24.19
2023-06-30T05:14:29.250Z,24.19
2023-06-30T05:15:36.855Z,24.17
2023-06-30T05:16:41.895Z,24.25
2023-06-30T05:17:49.602Z,24.24
2023-06-30T05:19:01.036Z,24.17
2023-06-30T05:20:09.899Z,24.23
2023-06-30T05:21:17.478Z,24.23
2023-06-30T05:22:22.396Z,24.20
2023-06-30T05:23:30.958Z,24.26
2023-06-30T05:24:36.747Z,24.15
2023-06-30T05:25:44.719Z,24.23
2023-06-30T05:26:50.133Z,24.25
2023-06-30T05:27:58.030Z,24.13
2023-06-30T05:29:05.405Z,23.97
2023-06-30T05:30:14.533Z,24.15
2023-06-30T05:31:19.811Z,24.09
2023-06-30T05:32:28.433Z,24.03
2023-06-30T05:33:33.702Z,23.73
2023-06-30T05:34:43.907Z,24.04
2023-06-30T05:35:48.864Z,23.98
2023-06-30T05:36:57.727Z,24.02
2023-06-30T05:38:02.652Z,24.08
2023-06-30T05:39:10.413Z,24.18
2023-06-30T05:40:15.456Z,24.24
2023-06-30T05:41:23.314Z,24.13
2023-06-30T05:42:28.253Z,24.08
2023-06-30T05:43:35.832Z,24.12
2023-06-30T05:44:40.766Z,24.06
2023-06-30T05:45:49.328Z,24.04
2023-06-30T05:46:56.931Z,24.03
2023-06-30T05:48:04.816Z,24.18
2023-06-30T05:49:12.523Z,24.12
2023-06-30T05:50:23.601Z,24.13
2023-06-30T05:51:31.118Z,24.13
2023-06-30T05:52:36.072Z,24.13
2023-06-30T05:53:43.639Z,24.24
2023-06-30T05:54:48.592Z,24.28
2023-06-30T05:55:57.601Z,24.29
2023-06-30T05:57:05.334Z,24.40
2023-06-30T05:58:12.947Z,24.32
2023-06-30T05:59:17.861Z,24.29
2023-06-30T06:00:26.944Z,24.15
2023-06-30T06:01:31.942Z,24.13
2023-06-30T06:02:39.936Z,24.15
2023-06-30T06:03:45.863Z,24.27
2023-06-30T06:04:54.013Z,24.34
2023-06-30T06:06:01.822Z,24.43
2023-06-30T06:07:09.853Z,24.43
2023-06-30T06:08:17.532Z,24.52
2023-06-30T06:09:22.492Z,24.60
2023-06-30T06:10:30.087Z,24.18
2023-06-30T06:11:35.019Z,24.69
2023-06-30T06:12:44.602Z,24.74
2023-06-30T06:13:49.561Z,24.80
2023-06-30T06:14:57.261Z,24.90
2023-06-30T06:16:03.012Z,24.85
2023-06-30T06:17:11.717Z,24.96
2023-06-30T06:18:16.612Z,25.02
2023-06-30T06:19:24.571Z,25.03
2023-06-30T06:20:29.637Z,25.01
2023-06-30T06:21:39.971Z,25.15
2023-06-30T06:22:44.984Z,25.00
2023-06-30T06:23:55.110Z,24.90
2023-06-30T06:25:02.789Z,24.89
2023-06-30T06:26:07.731Z,24.97
2023-06-30T06:27:15.578Z,24.96
2023-06-30T06:28:20.684Z,24.96
2023-06-30T06:29:28.705Z,25.02
2023-06-30T06:30:33.682Z,25.16
2023-06-30T06:31:41.244Z,25.23
2023-06-30T06:32:48.790Z,25.24
2023-06-30T06:33:55.889Z,25.32
2023-06-30T06:35:03.739Z,25.07
2023-06-30T06:36:09.771Z,25.02
2023-06-30T06:37:20.952Z,24.92
2023-06-30T06:38:25.960Z,24.91
2023-06-30T06:39:33.531Z,24.85
2023-06-30T06:40:39.145Z,24.82
2023-06-30T06:41:46.812Z,24.75
2023-06-30T06:42:56.461Z,24.80
2023-06-30T06:44:08.390Z,24.74
2023-06-30T06:45:14.319Z,24.79
2023-06-30T06:46:22.020Z,24.75
2023-06-30T06:47:58.838Z,24.71
2023-06-30T06:49:06.442Z,24.78
2023-06-30T06:50:11.716Z,24.92
2023-06-30T06:51:19.555Z,24.11
2023-06-30T06:52:27.125Z,24.86
2023-06-30T06:53:36.384Z,24.82
2023-06-30T06:54:41.295Z,24.73
2023-06-30T06:55:53.800Z,24.62
2023-06-30T06:56:58.810Z,24.49
2023-06-30T06:58:06.509Z,24.58
2023-06-30T06:59:14.080Z,24.62
2023-06-30T07:00:20.222Z,24.61
2023-06-30T07:01:28.032Z,24.64
2023-06-30T07:02:33.358Z,24.61
2023-06-30T07:03:41.213Z,24.60
2023-06-30T07:04:46.156Z,24.70
2023-06-30T07:05:54.344Z,24.71
2023-06-30T07:06:59.183Z,24.80
2023-06-30T07:08:10.590Z,24.84
2023-06-30T07:09:15.652Z,24.94
2023-06-30T07:10:23.567Z,24.91
2023-06-30T07:11:31.233Z,24.96
2023-06-30T07:12:36.146Z,24.95
2023-06-30T07:13:44.044Z,25.02
2023-06-30T07:14:50.194Z,25.06
2023-06-30T07:15:58.004Z,25.16
2023-06-30T07:17:02.877Z,25.14
2023-06-30T07:18:10.841Z,25.07
2023-06-30T07:19:16.082Z,25.04
2023-06-30T07:20:23.918Z,24.99
2023-06-30T07:21:28.771Z,24.35
2023-06-30T07:22:36.670Z,25.16
2023-06-30T07:23:50.462Z,25.16
2023-06-30T07:24:55.436Z,24.63
2023-06-30T07:26:03.016Z,25.18
2023-06-30T07:27:08.673Z,25.13
2023-06-30T07:28:16.551Z,24.96
2023-06-30T07:29:21.434Z,25.20
2023-06-30T07:30:30.507Z,25.18
2023-06-30T07:31:38.193Z,25.14
2023-06-30T07:32:44.832Z,25.20
2023-06-30T07:33:52.424Z,25.28
2023-06-30T07:34:57.247Z,25.20
2023-06-30T07:36:04.889Z,25.29
2023-06-30T07:37:09.811Z,25.33
2023-06-30T07:38:17.808Z,25.34
2023-06-30T07:39:25.467Z,25.36
2023-06-30T07:40:50.272Z,25.36
2023-06-30T07:41:58.662Z,25.36
2023-06-30T07:43:03.938Z,25.38
2023-06-30T07:44:13.617Z,25.40
2023-06-30T07:45:19.631Z,25.39
2023-06-30T07:46:27.248Z,25.41
2023-06-30T07:47:32.406Z,25.37
2023-06-30T07:48:40.679Z,25.37
2023-06-30T07:49:45.744Z,25.35
2023-06-30T07:51:03.662Z,25.42
2023-06-30T07:52:13.773Z,25.36
2023-06-30T07:53:23.072Z,25.46
2023-06-30T07:54:30.685Z,25.46
2023-06-30T07:55:38.372Z,25.41
2023-06-30T07:56:43.425Z,25.44
2023-06-30T07:57:54.199Z,25.39
2023-06-30T07:58:59.089Z,25.42
2023-06-30T08:00:07.899Z,25.48
2023-06-30T08:01:24.402Z,25.45
2023-06-30T08:02:29.428Z,25.38
2023-06-30T08:03:38.172Z,25.31
2023-06-30T08:04:43.586Z,25.31
2023-06-30T08:05:51.639Z,25.21
2023-06-30T08:06:57.056Z,25.23
2023-06-30T08:08:04.640Z,25.21
2023-06-30T08:09:09.495Z,25.17
2023-06-30T08:10:20.495Z,25.15
2023-06-30T08:11:27.397Z,25.05
2023-06-30T08:12:35.311Z,23.93
2023-06-30T08:13:40.882Z,25.22
2023-06-30T08:14:50.204Z,25.15
2023-06-30T08:15:55.680Z,25.21
2023-06-30T08:17:03.488Z,25.18
2023-06-30T08:18:10.123Z,25.20
2023-06-30T08:19:47.886Z,25.17
2023-06-30T08:20:45.887Z,25.14
2023-06-30T08:21:50.876Z,25.08
2023-06-30T08:22:58.669Z,25.08
2023-06-30T08:24:03.687Z,25.13
2023-06-30T08:25:11.980Z,25.07
2023-06-30T08:26:19.919Z,25.07
2023-06-30T08:27:27.551Z,25.03
2023-06-30T08:28:32.446Z,24.99
2023-06-30T08:29:41.699Z,24.71
2023-06-30T08:30:46.686Z,24.95
2023-06-30T08:31:54.508Z,24.92
2023-06-30T08:33:02.073Z,25.02
2023-06-30T08:34:07.402Z,25.04
2023-06-30T08:35:15.405Z,25.07
2023-06-30T08:36:20.645Z,25.12
2023-06-30T08:37:28.193Z,25.06
2023-06-30T08:38:33.191Z,25.18
2023-06-30T08:39:41.239Z,25.21
2023-06-30T08:40:46.256Z,25.21
2023-06-30T08:41:59.389Z,25.25
2023-06-30T08:43:18.362Z,23.80
2023-06-30T08:44:27.256Z,25.27
2023-06-30T08:45:35.294Z,25.25
2023-06-30T08:46:44.162Z,25.21
2023-06-30T08:47:49.352Z,25.27
2023-06-30T08:48:57.972Z,25.27
2023-06-30T08:50:03.371Z,25.24
2023-06-30T08:51:12.028Z,25.30
2023-06-30T08:52:20.549Z,25.28
2023-06-30T08:53:28.635Z,25.26
2023-06-30T08:54:38.694Z,25.20
2023-06-30T08:55:44.205Z,25.29
2023-06-30T08:56:51.924Z,25.30
2023-06-30T08:58:09.707Z,25.08
2023-06-30T08:59:21.959Z,24.39
2023-06-30T09:00:27.676Z,24.98
2023-06-30T09:01:35.520Z,25.23
2023-06-30T09:02:42.847Z,25.34
2023-06-30T09:03:50.582Z,24.29
2023-06-30T09:04:57.411Z,25.27
2023-06-30T09:06:06.075Z,25.21
2023-06-30T09:07:25.217Z,25.21
2023-06-30T09:08:43.633Z,25.18
2023-06-30T09:09:52.501Z,25.15
2023-06-30T09:10:58.167Z,25.27
2023-06-30T09:12:05.956Z,24.16
2023-06-30T09:13:14.675Z,25.25
2023-06-30T09:14:22.783Z,24.78
2023-06-30T09:15:28.692Z,25.21
2023-06-30T09:16:37.540Z,25.25
2023-06-30T09:17:45.774Z,25.30
2023-06-30T09:18:51.301Z,25.31
2023-06-30T09:19:59.021Z,25.32
2023-06-30T09:21:07.622Z,25.27
2023-06-30T09:22:54.809Z,25.25
2023-06-30T09:23:44.785Z,25.18
2023-06-30T09:24:53.330Z,25.15
2023-06-30T09:26:01.059Z,25.19
2023-06-30T09:27:06.496Z,25.10
2023-06-30T09:28:18.591Z,25.13
2023-06-30T09:29:27.793Z,25.15
2023-06-30T09:30:35.385Z,24.19
2023-06-30T09:31:44.119Z,25.15
2023-06-30T09:32:49.293Z,25.13
2023-06-30T09:33:56.984Z,25.03
2023-06-30T09:35:11.898Z,24.94
2023-06-30T09:36:22.660Z,24.91
2023-06-30T09:37:27.578Z,24.94
2023-06-30T09:38:35.226Z,24.89
2023-06-30T09:39:51.754Z,24.80
2023-06-30T09:41:00.556Z,24.76
2023-06-30T09:42:08.802Z,24.72
2023-06-30T09:43:25.325Z,24.93
2023-06-30T09:44:39.412Z,24.94
2023-06-30T09:45:50.073Z,24.97
2023-06-30T09:46:56.548Z,24.94
2023-06-30T09:48:05.345Z,24.94
2023-06-30T09:49:14.661Z,24.93
2023-06-30T09:50:25.673Z,24.36
2023-06-30T09:51:36.308Z,24.90
2023-06-30T09:52:41.152Z,24.92
2023-06-30T09:53:48.726Z,24.88
2023-06-30T09:54:53.941Z,24.97
2023-06-30T09:56:01.480Z,25.00
2023-06-30T09:57:12.952Z,25.01
2023-06-30T09:58:22.345Z,25.02
2023-06-30T09:59:30.389Z,24.96
2023-06-30T10:00:36.934Z,24.88
2023-06-30T10:01:46.092Z,24.80
2023-06-30T10:03:04.852Z,24.75
2023-06-30T10:04:13.237Z,24.88
2023-06-30T10:05:19.720Z,24.90
2023-06-30T10:06:28.843Z,24.85
2023-06-30T10:07:33.999Z,24.88
2023-06-30T10:08:41.784Z,24.88
2023-06-30T10:09:52.216Z,24.90
2023-06-30T10:11:01.952Z,24.88
2023-06-30T10:12:10.788Z,24.85
2023-06-30T10:13:23.159Z,24.84
2023-06-30T10:14:31.741Z,24.95
2023-06-30T10:15:40.859Z,24.61
2023-06-30T10:16:53.131Z,24.85
2023-06-30T10:18:04.098Z,24.72
2023-06-30T10:19:13.199Z,24.44
2023-06-30T10:20:22.067Z,24.68
2023-06-30T10:21:31.238Z,24.80
2023-06-30T10:22:39.760Z,24.90
2023-06-30T10:23:47.606Z,24.79
2023-06-30T10:24:56.301Z,24.92
2023-06-30T10:26:06.230Z,24.98
2023-06-30T10:27:18.479Z,25.05
2023-06-30T10:28:29.779Z,25.15
2023-06-30T10:29:37.674Z,25.18
2023-06-30T10:30:43.350Z,25.14
2023-06-30T10:31:51.392Z,25.13
2023-06-30T10:32:56.444Z,25.10
2023-06-30T10:34:04.564Z,24.94
2023-06-30T10:35:15.075Z,24.69
2023-06-30T10:36:24.709Z,24.98
2023-06-30T10:37:29.802Z,24.93
2023-06-30T10:38:37.872Z,25.01
2023-06-30T10:39:45.135Z,24.99
2023-06-30T10:40:52.934Z,25.03
2023-06-30T10:41:59.552Z,24.88
2023-06-30T10:43:11.963Z,24.63
2023-06-30T10:44:24.437Z,24.96
2023-06-30T10:45:31.275Z,24.98
2023-06-30T10:46:56.784Z,25.06
2023-06-30T10:48:13.690Z,25.14
2023-06-30T10:49:31.292Z,25.05
2023-06-30T10:50:46.958Z,25.13
2023-06-30T10:51:53.047Z,25.12
2023-06-30T10:53:00.655Z,25.16
2023-06-30T10:54:05.820Z,25.00
2023-06-30T10:55:20.394Z,25.18
2023-06-30T10:56:25.682Z,25.24
2023-06-30T10:57:40.073Z,25.25
2023-06-30T10:58:50.351Z,25.21
2023-06-30T11:00:14.053Z,25.02
2023-06-30T11:01:18.931Z,25.06
2023-06-30T11:02:34.744Z,25.10
2023-06-30T11:04:11.644Z,25.13
2023-06-30T11:05:27.834Z,25.07
2023-06-30T11:06:32.848Z,24.77
2023-06-30T11:07:40.495Z,24.94
2023-06-30T11:09:05.136Z,25.01
2023-06-30T11:10:14.962Z,25.02
2023-06-30T11:11:24.468Z,25.00
2023-06-30T11:12:31.066Z,25.13
2023-06-30T11:13:43.820Z,25.24
2023-06-30T11:14:56.393Z,25.19
2023-06-30T11:16:06.954Z,25.22
2023-06-30T11:17:13.557Z,25.14
2023-06-30T11:18:25.771Z,25.13
2023-06-30T11:19:30.865Z,25.02
2023-06-30T11:20:39.023Z,24.89
2023-06-30T11:21:44.919Z,24.94
2023-06-30T11:23:02.671Z,24.95
2023-06-30T11:24:17.028Z,23.86
2023-06-30T11:25:25.489Z,25.03
2023-06-30T11:26:33.393Z,25.08
2023-06-30T11:27:39.232Z,25.04
2023-06-30T11:28:49.652Z,25.20
2023-06-30T11:30:01.145Z,25.13
2023-06-30T11:31:12.725Z,25.11
2023-06-30T11:32:19.775Z,24.97
2023-06-30T11:33:27.935Z,25.26
2023-06-30T11:34:33.490Z,25.45
2023-06-30T11:35:41.569Z,25.60
2023-06-30T11:36:49.689Z,25.46
2023-06-30T11:37:58.446Z,25.42
2023-06-30T11:39:03.521Z,25.56
2023-06-30T11:40:12.436Z,25.57
2023-06-30T11:41:20.924Z,25.58
2023-06-30T11:42:29.565Z,25.65
2023-06-30T11:43:41.560Z,25.67
2023-06-30T11:44:46.540Z,25.67
2023-06-30T11:46:02.735Z,25.73
2023-06-30T11:47:10.953Z,25.83
2023-06-30T11:48:18.776Z,25.78
2023-06-30T11:49:23.976Z,25.92
2023-06-30T11:50:35.139Z,25.96
2023-06-30T11:51:40.112Z,25.94
2023-06-30T11:52:48.085Z,25.94
2023-06-30T11:53:52.958Z,25.97
2023-06-30T11:55:00.500Z,25.89
2023-06-30T11:56:08.205Z,25.79
2023-06-30T11:57:13.142Z,25.89
2023-06-30T11:58:24.438Z,25.90
2023-06-30T11:59:29.542Z,25.92
2023-06-30T12:00:37.059Z,25.65
2023-06-30T12:01:43.600Z,26.10
2023-06-30T12:02:55.819Z,26.13
2023-06-30T12:04:05.870Z,26.07
2023-06-30T12:05:14.543Z,26.06
2023-06-30T12:06:23.354Z,26.02
2023-06-30T12:07:28.745Z,26.03
2023-06-30T12:08:40.757Z,26.22
2023-06-30T12:09:48.199Z,26.24
2023-06-30T12:10:55.949Z,26.32
2023-06-30T12:12:02.328Z,26.34
2023-06-30T12:13:13.310Z,26.42
2023-06-30T12:14:20.343Z,26.45
2023-06-30T12:15:28.218Z,26.50
2023-06-30T12:16:41.484Z,26.54
2023-06-30T12:17:51.154Z,26.60
2023-06-30T12:19:01.541Z,26.67
2023-06-30T12:20:08.752Z,26.66
2023-06-30T12:21:17.945Z,26.80
2023-06-30T12:22:29.038Z,26.31
2023-06-30T12:23:36.698Z,26.73
2023-06-30T12:24:44.113Z,26.35
2023-06-30T12:25:53.917Z,26.86
2023-06-30T12:26:58.956Z,26.72
2023-06-30T12:28:08.115Z,26.95
2023-06-30T12:29:13.206Z,27.06
2023-06-30T12:30:23.448Z,27.06
2023-06-30T12:31:28.585Z,27.05
2023-06-30T12:32:36.369Z,27.03
2023-06-30T12:33:41.317Z,27.08
2023-06-30T12:34:53.440Z,27.03
2023-06-30T12:36:01.665Z,27.01
2023-06-30T12:37:07.053Z,27.07
2023-06-30T12:38:15.536Z,27.09
2023-06-30T12:39:20.538Z,27.06
2023-06-30T12:40:43.550Z,27.07
2023-06-30T12:41:51.185Z,27.03
2023-06-30T12:42:58.924Z,27.06
2023-06-30T12:44:05.397Z,27.08
2023-06-30T12:45:14.306Z,26.95
2023-06-30T12:46:19.213Z,25.85
2023-06-30T12:47:27.051Z,26.94
2023-06-30T12:48:35.357Z,26.92
2023-06-30T12:49:40.253Z,26.87
2023-06-30T12:50:50.621Z,26.86
2023-06-30T12:51:55.998Z,26.93
2023-06-30T12:53:03.980Z,26.86
2023-06-30T12:54:09.064Z,26.93
2023-06-30T12:55:18.088Z,26.94
2023-06-30T12:56:25.813Z,26.87
2023-06-30T12:57:33.447Z,26.84
2023-06-30T12:58:38.533Z,26.93
2023-06-30T12:59:46.172Z,27.00
2023-06-30T13:00:54.608Z,27.07
2023-06-30T13:01:59.652Z,27.05
2023-06-30T13:03:07.534Z,27.05
2023-06-30T13:04:12.641Z,27.06
2023-06-30T13:05:20.456Z,27.00
2023-06-30T13:06:28.509Z,26.85
2023-06-30T13:07:37.075Z,26.86
2023-06-30T13:08:42.070Z,26.94
2023-06-30T13:09:50.885Z,26.92
2023-06-30T13:10:56.994Z,26.97
2023-06-30T13:12:04.853Z,26.90
2023-06-30T13:13:13.139Z,26.86
2023-06-30T13:14:18.350Z,27.06
2023-06-30T13:15:26.423Z,27.07
2023-06-30T13:16:31.462Z,27.06
2023-06-30T13:17:39.125Z,27.15
2023-06-30T13:18:44.133Z,27.20
2023-06-30T13:19:51.779Z,27.19
2023-06-30T13:20:59.535Z,26.93
2023-06-30T13:22:10.458Z,27.21
2023-06-30T13:23:28.159Z,27.15
2023-06-30T13:24:45.291Z,27.15
2023-06-30T13:25:50.823Z,27.14
2023-06-30T13:26:58.537Z,27.13
2023-06-30T13:28:03.648Z,26.86
2023-06-30T13:29:11.401Z,27.01
2023-06-30T13:30:16.604Z,27.22
2023-06-30T13:31:24.537Z,27.27
2023-06-30T13:32:30.084Z,27.38
2023-06-30T13:33:38.160Z,27.38
2023-06-30T13:34:46.133Z,27.52
2023-06-30T13:35:51.044Z,27.43
2023-06-30T13:36:58.690Z,27.59
2023-06-30T13:38:11.917Z,27.65
2023-06-30T13:39:16.960Z,27.67
2023-06-30T13:40:25.279Z,27.68
2023-06-30T13:41:30.417Z,27.78
2023-06-30T13:42:38.395Z,27.89
2023-06-30T13:43:43.509Z,27.94
2023-06-30T13:44:54.428Z,27.98
2023-06-30T13:46:03.933Z,27.05
2023-06-30T13:47:11.761Z,27.93
2023-06-30T13:48:16.955Z,28.03
2023-06-30T13:49:25.282Z,27.94
2023-06-30T13:50:30.215Z,27.98
2023-06-30T13:51:38.084Z,27.89
2023-06-30T13:52:45.828Z,27.84
2023-06-30T13:53:53.470Z,27.90
2023-06-30T13:55:01.228Z,27.83
2023-06-30T13:56:07.213Z,27.86
2023-06-30T13:57:14.811Z,27.80
2023-06-30T13:58:19.741Z,27.75
2023-06-30T13:59:28.910Z,27.91
2023-06-30T14:00:33.843Z,27.91
2023-06-30T14:01:42.762Z,27.94
2023-06-30T14:02:50.486Z,27.92
2023-06-30T14:03:55.674Z,27.98
2023-06-30T14:05:03.483Z,27.93
2023-06-30T14:06:13.009Z,28.06
2023-06-30T14:07:20.704Z,27.97
2023-06-30T14:08:25.764Z,27.95
2023-06-30T14:09:36.364Z,28.00
2023-06-30T14:10:44.387Z,28.09
2023-06-30T14:11:52.918Z,28.24
2023-06-30T14:12:57.991Z,28.26
2023-06-30T14:14:07.016Z,28.16
2023-06-30T14:15:12.843Z,28.13
2023-06-30T14:16:20.471Z,28.15
2023-06-30T14:17:25.593Z,28.25
2023-06-30T14:18:33.551Z,28.31
2023-06-30T14:19:39.385Z,28.30
2023-06-30T14:20:49.805Z,28.39
2023-06-30T14:21:54.732Z,28.51
2023-06-30T14:23:02.688Z,28.57
2023-06-30T14:24:08.502Z,28.61
2023-06-30T14:25:26.648Z,27.63
2023-06-30T14:26:37.126Z,28.62
2023-06-30T14:27:42.281Z,28.62
2023-06-30T14:28:50.747Z,28.65
2023-06-30T14:29:56.160Z,28.70
2023-06-30T14:31:03.914Z,28.82
2023-06-30T14:32:10.291Z,28.81
2023-06-30T14:33:18.020Z,28.78
2023-06-30T14:34:22.982Z,28.82
2023-06-30T14:35:30.641Z,28.86
2023-06-30T14:36:38.412Z,28.92